Time;durP1;ratioP1;P1;durP2;ratioP2;P2;SDS_P1;SDS_P2;PMS_P1;PMS_P2;Temp;Humidity;BMP_temperature;BMP_pressure;BME280_temperature;BME280_humidity;BME280_pressure;Samples;Min_cycle;Max_cycle;Signal;HPM_P1;HPM_P2
2024/02/26 00:02:43;;;;;;;16.87;9.97;;;;;;;;;;4978298;28;20182;-88
2024/02/26 00:05:47;;;;;;;14.87;9.40;;;;;;;;;;4978422;28;20213;-88
2024/02/26 00:08:52;;;;;;;12.60;8.27;;;;;;;;;;4989021;28;20182;-87
2024/02/26 00:11:57;;;;;;;14.73;9.23;;;;;;;;;;4978037;28;20177;-88
2024/02/26 00:15:02;;;;;;;13.20;9.00;;;;;;;;;;5035320;28;20182;-88
2024/02/26 00:18:06;;;;;;;14.27;9.47;;;;;;;;;;4977171;28;20225;-88
2024/02/26 00:21:10;;;;;;;12.30;9.20;;;;;;;;;;4977699;28;20189;-88
2024/02/26 00:24:14;;;;;;;14.77;8.77;;;;;;;;;;5035351;28;20185;-88
2024/02/26 00:27:18;;;;;;;15.10;9.03;;;;;;;;;;4977549;28;20237;-88
2024/02/26 00:30:23;;;;;;;15.70;8.77;;;;;;;;;;4977189;28;20181;-88
2024/02/26 00:33:27;;;;;;;14.20;8.83;;;;;;;;;;5000010;28;20186;-87
2024/02/26 00:36:31;;;;;;;13.93;8.77;;;;;;;;;;4977410;28;20634;-88
2024/02/26 00:39:35;;;;;;;14.30;9.60;;;;;;;;;;4978544;28;20182;-88
2024/02/26 00:42:45;;;;;;;18.10;10.20;;;;;;;;;;4988825;28;20523;-87
2024/02/26 00:45:51;;;;;;;18.00;10.23;;;;;;;;;;4977693;28;20547;-87
2024/02/26 00:48:55;;;;;;;14.17;9.67;;;;;;;;;;4988344;28;20178;-88
2024/02/26 00:52:00;;;;;;;14.43;9.60;;;;;;;;;;4988800;28;20177;-88
2024/02/26 00:55:04;;;;;;;14.50;9.50;;;;;;;;;;4977110;28;20182;-88
2024/02/26 00:58:09;;;;;;;14.17;8.90;;;;;;;;;;4988353;28;20217;-88
2024/02/26 01:01:13;;;;;;;13.20;9.03;;;;;;;;;;4977095;28;20186;-87
2024/02/26 01:04:17;;;;;;;15.07;8.97;;;;;;;;;;4988250;28;20182;-88
2024/02/26 01:07:22;;;;;;;16.73;9.70;;;;;;;;;;4978595;28;20233;-88
2024/02/26 01:10:26;;;;;;;16.17;10.47;;;;;;;;;;4980445;28;20622;-87
2024/02/26 01:13:30;;;;;;;16.73;10.40;;;;;;;;;;4980734;28;20189;-88
2024/02/26 01:16:35;;;;;;;15.93;10.10;;;;;;;;;;4991208;28;20178;-88
2024/02/26 01:19:39;;;;;;;15.57;9.67;;;;;;;;;;4991640;28;20182;-88
2024/02/26 01:22:44;;;;;;;15.73;10.07;;;;;;;;;;4990874;28;20189;-87
2024/02/26 01:25:48;;;;;;;15.50;9.93;;;;;;;;;;4979887;28;20213;-88
2024/02/26 01:28:52;;;;;;;16.90;10.47;;;;;;;;;;4990963;28;20202;-88
2024/02/26 01:31:56;;;;;;;17.43;10.90;;;;;;;;;;4980111;28;20548;-88
2024/02/26 01:35:01;;;;;;;17.00;10.50;;;;;;;;;;4980019;28;20186;-88
2024/02/26 01:38:05;;;;;;;18.90;11.20;;;;;;;;;;4979743;28;20562;-87
2024/02/26 01:41:09;;;;;;;14.83;10.20;;;;;;;;;;4991238;28;20182;-88
2024/02/26 01:44:13;;;;;;;18.27;11.23;;;;;;;;;;4979727;28;20186;-88
2024/02/26 01:47:18;;;;;;;16.87;10.67;;;;;;;;;;4984338;28;20656;-87
2024/02/26 01:50:23;;;;;;;17.20;11.47;;;;;;;;;;4984425;28;20185;-88
2024/02/26 01:53:28;;;;;;;13.73;10.07;;;;;;;;;;4996160;28;20182;-87
2024/02/26 01:56:33;;;;;;;14.07;9.77;;;;;;;;;;5042859;28;20174;-88
2024/02/26 01:59:39;;;;;;;18.93;11.17;;;;;;;;;;5043532;28;20658;-88
2024/02/26 02:02:46;;;;;;;15.33;10.50;;;;;;;;;;4984924;28;20181;-87
2024/02/26 02:05:50;;;;;;;17.00;10.27;;;;;;;;;;4984763;28;20185;-88
2024/02/26 02:08:55;;;;;;;15.23;10.00;;;;;;;;;;4984199;28;20177;-88
2024/02/26 02:12:00;;;;;;;15.73;10.33;;;;;;;;;;4983224;28;20537;-88
2024/02/26 02:15:04;;;;;;;16.70;11.10;;;;;;;;;;4983251;28;21119;-87
2024/02/26 02:18:08;;;;;;;17.17;11.53;;;;;;;;;;4983720;28;20616;-88
2024/02/26 02:21:12;;;;;;;16.20;11.17;;;;;;;;;;4984339;28;20560;-88
2024/02/26 02:24:17;;;;;;;18.27;11.23;;;;;;;;;;4985357;28;20537;-88
2024/02/26 02:27:21;;;;;;;18.47;9.97;;;;;;;;;;4986923;28;20656;-88
2024/02/26 02:30:29;;;;;;;16.77;10.67;;;;;;;;;;4998938;28;20565;-88
2024/02/26 02:33:34;;;;;;;16.57;10.50;;;;;;;;;;4999303;28;20875;-88
2024/02/26 02:36:49;;;;;;;16.17;10.37;;;;;;;;;;4999463;28;20545;-88
2024/02/26 02:39:54;;;;;;;17.03;11.10;;;;;;;;;;4989566;28;20541;-87
2024/02/26 02:43:00;;;;;;;15.27;10.30;;;;;;;;;;5047686;28;20537;-87
2024/02/26 02:46:04;;;;;;;15.30;9.93;;;;;;;;;;4988407;28;20545;-87
2024/02/26 02:49:10;;;;;;;14.70;9.03;;;;;;;;;;4987871;28;21068;-88
2024/02/26 02:52:14;;;;;;;16.33;10.30;;;;;;;;;;4987631;28;20541;-87
2024/02/26 02:55:18;;;;;;;17.40;10.10;;;;;;;;;;4987312;28;20537;-88
2024/02/26 02:58:23;;;;;;;15.33;9.90;;;;;;;;;;4986658;28;20984;-88
2024/02/26 03:01:27;;;;;;;16.13;9.97;;;;;;;;;;4986533;28;20537;-88
2024/02/26 03:04:32;;;;;;;16.20;9.73;;;;;;;;;;4997049;28;20545;-88
2024/02/26 03:07:37;;;;;;;14.40;9.00;;;;;;;;;;4986170;28;20652;-88
2024/02/26 03:10:43;;;;;;;15.13;9.57;;;;;;;;;;4986106;28;21064;-87
2024/02/26 03:13:47;;;;;;;13.03;8.67;;;;;;;;;;4986311;28;20874;-87
2024/02/26 03:16:55;;;;;;;14.13;9.73;;;;;;;;;;4985634;28;20625;-87
2024/02/26 03:20:01;;;;;;;12.47;8.53;;;;;;;;;;4985683;28;20561;-88
2024/02/26 03:23:05;;;;;;;15.63;9.40;;;;;;;;;;5007071;28;20545;-87
2024/02/26 03:26:13;;;;;;;12.63;8.17;;;;;;;;;;4984647;28;20541;-87
2024/02/26 03:29:19;;;;;;;12.27;8.43;;;;;;;;;;4994275;28;20650;-88
2024/02/26 03:32:23;;;;;;;13.77;8.53;;;;;;;;;;4984066;28;20541;-87
2024/02/26 03:35:27;;;;;;;11.70;8.00;;;;;;;;;;4983365;28;20557;-87
2024/02/26 03:38:31;;;;;;;11.90;8.00;;;;;;;;;;4982239;28;20616;-88
2024/02/26 03:41:36;;;;;;;11.93;7.63;;;;;;;;;;4982072;28;20886;-88
2024/02/26 03:44:40;;;;;;;11.47;7.60;;;;;;;;;;4992644;28;20556;-87
2024/02/26 03:47:44;;;;;;;14.03;8.17;;;;;;;;;;4982376;28;20656;-88
2024/02/26 03:50:48;;;;;;;13.23;7.80;;;;;;;;;;4983319;28;20541;-88
2024/02/26 03:53:52;;;;;;;9.23;7.43;;;;;;;;;;5005313;28;20549;-88
2024/02/26 03:56:56;;;;;;;12.40;7.67;;;;;;;;;;4983657;28;20612;-87
2024/02/26 04:00:01;;;;;;;11.93;7.10;;;;;;;;;;5005503;28;20553;-87
2024/02/26 04:03:05;;;;;;;11.57;7.43;;;;;;;;;;4983117;28;20545;-87
2024/02/26 04:06:14;;;;;;;10.77;7.17;;;;;;;;;;4982321;28;20560;-87
2024/02/26 04:09:18;;;;;;;11.57;7.00;;;;;;;;;;5040486;28;20538;-88
2024/02/26 04:12:22;;;;;;;12.50;7.67;;;;;;;;;;4982799;28;20185;-88
2024/02/26 04:15:27;;;;;;;10.03;7.13;;;;;;;;;;4982104;28;21116;-88
2024/02/26 04:18:32;;;;;;;12.70;6.77;;;;;;;;;;4982457;28;20616;-87
2024/02/26 04:21:36;;;;;;;10.77;6.70;;;;;;;;;;4981848;28;21092;-87
2024/02/26 04:24:40;;;;;;;9.93;6.17;;;;;;;;;;4992793;28;20538;-87
2024/02/26 04:27:45;;;;;;;8.97;6.27;;;;;;;;;;5003364;28;20232;-88
2024/02/26 04:30:50;;;;;;;7.93;6.17;;;;;;;;;;4992020;28;20182;-88
2024/02/26 04:33:54;;;;;;;9.63;6.40;;;;;;;;;;4981118;28;20182;-88
2024/02/26 04:36:59;;;;;;;10.20;6.67;;;;;;;;;;4980697;28;20217;-88
2024/02/26 04:40:04;;;;;;;9.47;6.50;;;;;;;;;;4980522;28;20185;-87
2024/02/26 04:43:08;;;;;;;8.50;6.77;;;;;;;;;;4995435;28;20186;-88
2024/02/26 04:46:12;;;;;;;10.00;6.43;;;;;;;;;;4984040;28;20185;-88
2024/02/26 04:49:16;;;;;;;11.50;7.17;;;;;;;;;;4995260;28;20170;-88
2024/02/26 04:52:21;;;;;;;10.00;6.73;;;;;;;;;;5017862;28;20646;-88
2024/02/26 04:55:25;;;;;;;13.20;7.03;;;;;;;;;;4994554;28;20186;-88
2024/02/26 04:58:29;;;;;;;9.70;6.77;;;;;;;;;;4983336;28;20212;-87
2024/02/26 05:01:34;;;;;;;9.67;6.60;;;;;;;;;;4983031;28;20549;-87
2024/02/26 05:04:38;;;;;;;10.73;7.10;;;;;;;;;;5016614;28;20185;-87
2024/02/26 05:07:43;;;;;;;8.50;6.43;;;;;;;;;;4982129;28;20229;-88
2024/02/26 05:10:47;;;;;;;10.50;6.47;;;;;;;;;;4993333;28;20187;-88
2024/02/26 05:13:51;;;;;;;12.43;7.73;;;;;;;;;;4993009;28;20530;-88
2024/02/26 05:16:56;;;;;;;12.73;7.33;;;;;;;;;;4992404;28;20623;-88
2024/02/26 05:20:00;;;;;;;11.50;7.37;;;;;;;;;;5003808;28;20630;-88
2024/02/26 05:23:04;;;;;;;9.03;7.10;;;;;;;;;;5003726;28;20629;-88
2024/02/26 05:26:08;;;;;;;10.63;6.73;;;;;;;;;;5004105;28;20186;-88
2024/02/26 05:29:12;;;;;;;9.47;6.63;;;;;;;;;;4983043;28;20669;-88
2024/02/26 05:32:16;;;;;;;12.10;7.93;;;;;;;;;;4993954;28;20185;-88
2024/02/26 05:35:20;;;;;;;12.33;7.67;;;;;;;;;;4982011;28;20178;-88
2024/02/26 05:38:24;;;;;;;12.93;8.40;;;;;;;;;;5004101;28;20213;-88
2024/02/26 05:41:29;;;;;;;10.13;7.33;;;;;;;;;;4993100;28;20182;-87
2024/02/26 05:44:32;;;;;;;10.20;7.50;;;;;;;;;;4992941;28;20185;-87
2024/02/26 05:47:42;;;;;;;12.30;7.17;;;;;;;;;;5003013;28;20225;-87
2024/02/26 05:50:46;;;;;;;9.30;6.50;;;;;;;;;;4992447;28;20173;-88
2024/02/26 05:53:53;;;;;;;13.10;8.30;;;;;;;;;;4991999;28;20181;-88
2024/02/26 05:56:58;;;;;;;10.40;6.90;;;;;;;;;;4992525;28;20689;-87
2024/02/26 06:00:05;;;;;;;10.77;7.40;;;;;;;;;;4981875;28;20646;-88
2024/02/26 06:03:18;;;;;;;10.97;7.27;;;;;;;;;;5003305;28;20178;-88
2024/02/26 06:06:23;;;;;;;12.00;7.20;;;;;;;;;;4991710;28;20189;-88
2024/02/26 06:09:27;;;;;;;11.17;7.03;;;;;;;;;;5003388;28;20542;-88
2024/02/26 06:12:32;;;;;;;11.90;7.10;;;;;;;;;;5002803;28;20177;-88
2024/02/26 06:15:37;;;;;;;9.27;6.77;;;;;;;;;;5002731;28;20899;-88
2024/02/26 06:18:41;;;;;;;10.50;7.17;;;;;;;;;;4981295;28;20209;-88
2024/02/26 06:21:46;;;;;;;10.63;7.80;;;;;;;;;;4980913;28;20177;-88
2024/02/26 06:24:50;;;;;;;13.97;8.60;;;;;;;;;;4991140;28;20182;-88
2024/02/26 06:27:55;;;;;;;11.90;7.63;;;;;;;;;;4980224;28;20233;-88
2024/02/26 06:30:59;;;;;;;12.10;7.63;;;;;;;;;;4991692;28;20186;-87
2024/02/26 06:34:03;;;;;;;11.30;7.60;;;;;;;;;;4992041;28;20638;-86
2024/02/26 06:37:08;;;;;;;11.70;6.83;;;;;;;;;;5002747;28;20213;-87
2024/02/26 06:40:12;;;;;;;12.83;7.60;;;;;;;;;;4991696;28;20177;-87
2024/02/26 06:43:16;;;;;;;11.50;8.00;;;;;;;;;;5002695;28;20523;-87
2024/02/26 06:46:21;;;;;;;13.10;7.90;;;;;;;;;;5002636;28;20515;-87
2024/02/26 06:49:25;;;;;;;12.37;7.80;;;;;;;;;;5014147;28;20181;-87
2024/02/26 06:52:29;;;;;;;10.73;8.00;;;;;;;;;;5002078;28;20178;-87
2024/02/26 06:55:33;;;;;;;12.20;8.37;;;;;;;;;;4990919;28;20650;-87
2024/02/26 06:58:38;;;;;;;15.13;9.10;;;;;;;;;;4990724;28;20209;-86
2024/02/26 07:01:42;;;;;;;13.90;9.13;;;;;;;;;;4990843;28;20190;-86
2024/02/26 07:04:47;;;;;;;12.73;9.13;;;;;;;;;;5001794;28;20186;-86
2024/02/26 07:07:51;;;;;;;20.83;9.07;;;;;;;;;;5001630;28;20221;-86
2024/02/26 07:10:55;;;;;;;25.43;17.17;;;;;;;;;;4990888;28;20523;-86
2024/02/26 07:13:59;;;;;;;19.93;15.77;;;;;;;;;;5014025;28;20185;-86
2024/02/26 07:17:03;;;;;;;14.83;10.43;;;;;;;;;;5001602;28;20225;-87
2024/02/26 07:20:08;;;;;;;13.27;9.33;;;;;;;;;;4990545;28;20177;-86
2024/02/26 07:23:12;;;;;;;29.80;17.20;;;;;;;;;;4979423;28;20194;-86
2024/02/26 07:26:18;;;;;;;20.27;12.77;;;;;;;;;;5001978;28;20185;-87
2024/02/26 07:29:22;;;;;;;19.50;11.07;;;;;;;;;;4989952;28;20221;-87
2024/02/26 07:32:26;;;;;;;18.23;11.73;;;;;;;;;;5001452;28;20182;-87
2024/02/26 07:35:32;;;;;;;16.17;9.97;;;;;;;;;;4990349;28;20185;-87
2024/02/26 07:38:36;;;;;;;20.20;12.17;;;;;;;;;;5001144;28;20555;-87
2024/02/26 07:41:40;;;;;;;18.07;10.50;;;;;;;;;;5001289;28;20182;-87
2024/02/26 07:44:44;;;;;;;17.80;10.17;;;;;;;;;;5001296;28;20186;-87
2024/02/26 07:47:49;;;;;;;16.60;10.13;;;;;;;;;;5000843;28;20233;-87
2024/02/26 07:50:52;;;;;;;18.10;10.30;;;;;;;;;;5001258;28;20181;-86
2024/02/26 07:53:57;;;;;;;17.53;10.53;;;;;;;;;;5000957;28;20181;-87
2024/02/26 07:57:03;;;;;;;15.47;10.00;;;;;;;;;;5000833;28;20217;-87
2024/02/26 08:00:09;;;;;;;16.33;10.47;;;;;;;;;;4989362;28;20181;-87
2024/02/26 08:03:15;;;;;;;16.97;9.93;;;;;;;;;;4990407;28;20526;-87
2024/02/26 08:06:19;;;;;;;13.50;9.77;;;;;;;;;;5000955;28;20189;-87
2024/02/26 08:09:23;;;;;;;13.77;9.67;;;;;;;;;;5000617;28;20555;-87
2024/02/26 08:12:27;;;;;;;14.83;9.87;;;;;;;;;;5000961;28;20189;-87
2024/02/26 08:15:34;;;;;;;13.70;9.33;;;;;;;;;;4989382;28;20182;-87
2024/02/26 08:18:38;;;;;;;14.37;9.57;;;;;;;;;;5000403;28;20213;-87
2024/02/26 08:21:44;;;;;;;12.20;8.97;;;;;;;;;;4989589;28;20630;-87
2024/02/26 08:24:49;;;;;;;15.87;9.03;;;;;;;;;;4989681;28;20181;-87
2024/02/26 08:27:53;;;;;;;15.37;8.93;;;;;;;;;;4978274;28;20217;-87
2024/02/26 08:30:58;;;;;;;12.80;8.47;;;;;;;;;;4978384;28;20658;-87
2024/02/26 08:34:03;;;;;;;14.13;8.40;;;;;;;;;;5012466;28;20182;-87
2024/02/26 08:37:07;;;;;;;9.37;6.80;;;;;;;;;;5012639;28;20217;-86
2024/02/26 08:40:11;;;;;;;13.63;6.90;;;;;;;;;;4990432;28;20182;-86
2024/02/26 08:43:15;;;;;;;8.57;5.87;;;;;;;;;;5001864;28;20186;-86
2024/02/26 08:46:19;;;;;;;9.40;6.57;;;;;;;;;;5001886;28;20185;-86
2024/02/26 08:49:23;;;;;;;10.50;6.87;;;;;;;;;;4989771;28;20209;-86
2024/02/26 08:52:27;;;;;;;8.77;6.90;;;;;;;;;;4979188;28;20519;-86
2024/02/26 08:55:31;;;;;;;10.57;6.70;;;;;;;;;;4989692;28;20182;-86
2024/02/26 08:58:36;;;;;;;19.43;7.13;;;;;;;;;;4979486;28;20705;-85
2024/02/26 09:01:41;;;;;;;8.67;6.33;;;;;;;;;;4990137;28;20186;-87
2024/02/26 09:05:37;;;;;;;8.03;6.00;;;;;;;;;;4979529;28;20186;-89
2024/02/26 09:08:41;;;;;;;7.90;5.50;;;;;;;;;;5000930;28;20217;-87
2024/02/26 09:11:45;;;;;;;7.10;5.20;;;;;;;;;;5000591;28;20646;-87
2024/02/26 09:14:49;;;;;;;6.93;5.33;;;;;;;;;;4989545;28;20182;-87
2024/02/26 09:17:53;;;;;;;7.70;5.10;;;;;;;;;;4989069;28;20221;-88
2024/02/26 09:20:58;;;;;;;7.60;4.97;;;;;;;;;;5000443;28;20181;-88
2024/02/26 09:24:03;;;;;;;6.27;4.27;;;;;;;;;;4978493;28;20182;-88
2024/02/26 09:27:08;;;;;;;9.17;5.10;;;;;;;;;;4989482;28;20213;-88
2024/02/26 09:30:14;;;;;;;11.97;6.70;;;;;;;;;;5003927;28;20209;-89
2024/02/26 09:33:18;;;;;;;13.27;7.27;;;;;;;;;;4992643;28;20178;-88
2024/02/26 09:36:24;;;;;;;9.60;6.60;;;;;;;;;;4992369;28;20654;-89
2024/02/26 09:39:28;;;;;;;9.73;6.33;;;;;;;;;;4992540;28;20173;-89
2024/02/26 09:42:34;;;;;;;11.87;6.40;;;;;;;;;;4980887;28;20177;-89
2024/02/26 09:45:39;;;;;;;8.43;6.60;;;;;;;;;;4992174;28;20182;-89
2024/02/26 09:48:45;;;;;;;10.50;6.63;;;;;;;;;;4980766;28;20597;-89
2024/02/26 09:51:49;;;;;;;10.23;6.50;;;;;;;;;;4992081;28;20185;-89
2024/02/26 09:54:53;;;;;;;8.70;6.23;;;;;;;;;;4992112;28;20177;-89
2024/02/26 09:57:58;;;;;;;12.07;6.80;;;;;;;;;;4991502;28;20701;-89
2024/02/26 10:01:04;;;;;;;8.57;6.50;;;;;;;;;;5002941;28;20186;-88
2024/02/26 10:04:10;;;;;;;9.53;6.07;;;;;;;;;;5003137;28;20622;-88
2024/02/26 10:07:15;;;;;;;9.57;6.87;;;;;;;;;;5002731;28;20221;-89
2024/02/26 10:10:19;;;;;;;11.40;7.00;;;;;;;;;;4991609;28;20209;-88
2024/02/26 10:13:23;;;;;;;12.83;6.33;;;;;;;;;;5003025;28;20182;-89
2024/02/26 10:16:28;;;;;;;15.77;6.37;;;;;;;;;;4980399;28;20186;-89
2024/02/26 10:19:32;;;;;;;7.40;5.50;;;;;;;;;;5002693;28;20181;-89
2024/02/26 10:22:36;;;;;;;7.23;4.83;;;;;;;;;;5049709;28;20256;-89
2024/02/26 10:25:54;;;;;;;5.70;4.27;;;;;;;;;;4991177;28;20182;-90
2024/02/26 10:29:00;;;;;;;11.23;4.17;;;;;;;;;;4990948;28;20225;-90
2024/02/26 10:32:04;;;;;;;5.23;3.53;;;;;;;;;;4991414;28;20182;-89
2024/02/26 10:35:09;;;;;;;5.90;3.70;;;;;;;;;;4990989;28;20182;-89
2024/02/26 10:38:16;;;;;;;5.27;3.80;;;;;;;;;;4990166;28;20213;-89
2024/02/26 10:41:22;;;;;;;6.17;4.30;;;;;;;;;;4991101;28;20642;-89
2024/02/26 10:44:26;;;;;;;5.70;3.57;;;;;;;;;;5002327;28;20181;-89
2024/02/26 10:47:31;;;;;;;5.33;3.60;;;;;;;;;;4990362;28;20559;-89
2024/02/26 10:50:35;;;;;;;12.47;3.63;;;;;;;;;;5001626;28;20218;-88
2024/02/26 10:53:41;;;;;;;4.53;3.20;;;;;;;;;;4990637;28;20182;-89
2024/02/26 10:56:46;;;;;;;5.13;3.00;;;;;;;;;;5001612;28;20217;-89
2024/02/26 10:59:53;;;;;;;6.23;3.30;;;;;;;;;;5001776;28;20186;-89
2024/02/26 11:03:01;;;;;;;5.60;3.83;;;;;;;;;;4990804;28;20531;-89
2024/02/26 11:06:06;;;;;;;4.70;2.90;;;;;;;;;;4990279;28;20177;-89
2024/02/26 11:09:16;;;;;;;8.30;3.27;;;;;;;;;;4990203;28;20205;-89
2024/02/26 11:12:23;;;;;;;3.50;2.80;;;;;;;;;;5001710;28;20178;-88
2024/02/26 11:15:29;;;;;;;3.33;2.83;;;;;;;;;;5025320;28;20194;-89
2024/02/26 11:18:34;;;;;;;2.87;2.20;;;;;;;;;;4989992;28;20217;-89
2024/02/26 11:21:40;;;;;;;3.13;2.30;;;;;;;;;;4978949;28;20186;-89
2024/02/26 11:24:44;;;;;;;5.73;2.50;;;;;;;;;;5000732;28;20178;-89
2024/02/26 11:27:53;;;;;;;3.90;2.50;;;;;;;;;;4978287;28;20225;-89
2024/02/26 11:30:59;;;;;;;3.73;2.73;;;;;;;;;;4989698;28;20658;-89
2024/02/26 11:34:03;;;;;;;2.77;2.30;;;;;;;;;;4989982;28;20177;-89
2024/02/26 11:37:15;;;;;;;4.67;1.97;;;;;;;;;;5012903;28;20221;-89
2024/02/26 11:40:19;;;;;;;3.10;2.20;;;;;;;;;;5000506;28;20642;-89
2024/02/26 11:43:43;;;;;;;3.03;2.20;;;;;;;;;;4989794;28;20185;-89
2024/02/26 11:46:50;;;;;;;3.43;2.40;;;;;;;;;;5000307;28;20554;-89
2024/02/26 11:49:54;;;;;;;2.80;2.17;;;;;;;;;;4999839;28;20214;-88
2024/02/26 11:53:31;;;;;;;2.60;2.10;;;;;;;;;;4989453;28;20181;-88
2024/02/26 11:56:40;;;;;;;1.83;1.60;;;;;;;;;;5000197;28;20182;-89
2024/02/26 11:59:44;;;;;;;2.57;1.60;;;;;;;;;;5012079;28;20181;-89
2024/02/26 12:03:00;;;;;;;2.87;1.70;;;;;;;;;;4988908;28;20186;-89
2024/02/26 12:06:06;;;;;;;1.70;1.50;;;;;;;;;;4988934;28;20211;-89
2024/02/26 12:09:10;;;;;;;2.10;1.60;;;;;;;;;;5000342;28;20205;-89
2024/02/26 12:12:18;;;;;;;2.63;1.87;;;;;;;;;;5000189;28;20190;-90
2024/02/26 12:15:23;;;;;;;2.93;1.70;;;;;;;;;;4989398;28;20178;-89
2024/02/26 12:18:30;;;;;;;2.10;1.83;;;;;;;;;;4989016;28;20213;-89
2024/02/26 12:21:37;;;;;;;2.40;1.90;;;;;;;;;;4989001;28;20185;-89
2024/02/26 12:24:43;;;;;;;1.83;1.63;;;;;;;;;;5000544;28;20190;-89
2024/02/26 12:27:48;;;;;;;3.57;1.70;;;;;;;;;;4977687;28;20225;-89
2024/02/26 12:30:52;;;;;;;2.93;1.93;;;;;;;;;;4988934;28;20213;-89
2024/02/26 12:33:56;;;;;;;4.20;2.40;;;;;;;;;;4989613;28;20186;-89
2024/02/26 12:37:01;;;;;;;2.40;1.80;;;;;;;;;;5000345;28;20217;-89
2024/02/26 12:40:08;;;;;;;8.83;6.70;;;;;;;;;;4989503;28;20182;-89
2024/02/26 12:43:14;;;;;;;2.80;2.00;;;;;;;;;;4978061;28;20181;-91
2024/02/26 12:46:18;;;;;;;3.07;2.37;;;;;;;;;;4990183;28;20182;-90
2024/02/26 12:49:22;;;;;;;3.87;2.03;;;;;;;;;;4989348;28;20213;-89
2024/02/26 12:52:26;;;;;;;4.00;2.00;;;;;;;;;;5001386;28;20185;-90
2024/02/26 12:55:33;;;;;;;1.90;1.60;;;;;;;;;;4978583;28;20186;-89
2024/02/26 12:58:40;;;;;;;6.37;2.63;;;;;;;;;;4989204;28;20221;-89
2024/02/26 13:01:44;;;;;;;3.17;1.87;;;;;;;;;;4979113;28;20181;-90
2024/02/26 13:04:48;;;;;;;2.23;1.53;;;;;;;;;;5003857;28;20190;-89
2024/02/26 13:07:53;;;;;;;4.53;1.97;;;;;;;;;;4993411;28;20217;-90
2024/02/26 13:10:59;;;;;;;13.83;9.43;;;;;;;;;;4992544;28;20213;-89
2024/02/26 13:14:03;;;;;;;3.53;1.63;;;;;;;;;;5004177;28;20181;-89
2024/02/26 13:17:08;;;;;;;2.80;1.80;;;;;;;;;;5004310;28;20217;-89
2024/02/26 13:20:13;;;;;;;3.80;1.57;;;;;;;;;;5003661;28;20181;-90
2024/02/26 13:23:17;;;;;;;4.70;1.10;;;;;;;;;;5003824;28;20182;-89
2024/02/26 13:26:23;;;;;;;2.30;1.43;;;;;;;;;;5004156;28;20181;-89
2024/02/26 13:29:27;;;;;;;2.37;1.67;;;;;;;;;;5003080;28;20582;-89
2024/02/26 13:32:33;;;;;;;2.27;1.60;;;;;;;;;;4991673;28;20185;-88
2024/02/26 13:35:39;;;;;;;2.40;1.43;;;;;;;;;;5002900;28;20181;-88
2024/02/26 13:38:51;;;;;;;1.77;1.40;;;;;;;;;;4991631;28;20701;-89
2024/02/26 13:41:56;;;;;;;2.13;1.40;;;;;;;;;;5015205;28;20170;-88
2024/02/26 13:45:02;;;;;;;2.07;1.23;;;;;;;;;;5002516;28;20531;-89
2024/02/26 13:48:09;;;;;;;2.10;1.43;;;;;;;;;;5003001;28;20213;-89
2024/02/26 13:51:14;;;;;;;2.30;1.00;;;;;;;;;;4980314;28;20210;-89
2024/02/26 13:54:17;;;;;;;1.53;1.23;;;;;;;;;;5015127;28;20182;-89
2024/02/26 13:57:21;;;;;;;3.13;1.17;;;;;;;;;;5002538;28;20225;-88
2024/02/26 14:00:27;;;;;;;2.40;1.20;;;;;;;;;;4991165;28;20181;-89
2024/02/26 14:03:31;;;;;;;1.60;1.20;;;;;;;;;;5002251;28;20178;-89
2024/02/26 14:06:35;;;;;;;3.40;1.60;;;;;;;;;;5001985;28;20181;-88
2024/02/26 14:09:39;;;;;;;1.03;0.90;;;;;;;;;;5002855;28;20205;-89
2024/02/26 14:12:43;;;;;;;1.87;1.20;;;;;;;;;;4990570;28;20190;-89
2024/02/26 14:15:49;;;;;;;3.30;1.20;;;;;;;;;;4990586;28;20186;-89
2024/02/26 14:18:53;;;;;;;2.33;1.47;;;;;;;;;;4968536;28;20523;-89
2024/02/26 14:21:57;;;;;;;3.27;1.17;;;;;;;;;;5001712;28;20627;-88
2024/02/26 14:25:01;;;;;;;2.10;1.67;;;;;;;;;;4979489;28;20181;-89
2024/02/26 14:28:05;;;;;;;4.60;1.83;;;;;;;;;;5001716;28;20677;-88
2024/02/26 14:31:10;;;;;;;3.73;1.27;;;;;;;;;;4990303;28;20206;-89
2024/02/26 14:34:14;;;;;;;2.47;1.40;;;;;;;;;;4979551;28;20622;-89
2024/02/26 14:37:18;;;;;;;1.70;1.30;;;;;;;;;;4978975;28;20221;-89
2024/02/26 14:40:22;;;;;;;3.27;1.40;;;;;;;;;;4979002;28;20538;-89
2024/02/26 14:43:26;;;;;;;1.70;1.33;;;;;;;;;;4978972;28;20181;-88
2024/02/26 14:46:30;;;;;;;5.23;1.50;;;;;;;;;;4979717;28;20538;-89
2024/02/26 14:49:35;;;;;;;1.27;1.17;;;;;;;;;;5013736;28;20185;-89
2024/02/26 14:52:39;;;;;;;4.07;1.27;;;;;;;;;;5013961;28;20186;-88
2024/02/26 14:55:43;;;;;;;1.67;1.20;;;;;;;;;;4991471;28;20190;-89
2024/02/26 14:58:47;;;;;;;1.80;1.30;;;;;;;;;;5003583;28;20213;-89
2024/02/26 15:01:51;;;;;;;1.93;1.27;;;;;;;;;;5013284;28;20177;-89
2024/02/26 15:04:55;;;;;;;1.70;1.03;;;;;;;;;;4990573;28;20182;-89
2024/02/26 15:07:59;;;;;;;1.70;1.20;;;;;;;;;;5037157;28;20229;-89
2024/02/26 15:11:03;;;;;;;3.53;1.57;;;;;;;;;;5002173;28;20213;-89
2024/02/26 15:14:07;;;;;;;3.57;1.23;;;;;;;;;;4990857;28;20181;-89
2024/02/26 15:17:13;;;;;;;9.27;5.00;;;;;;;;;;5001856;28;20213;-89
2024/02/26 15:20:17;;;;;;;2.33;1.50;;;;;;;;;;4989805;28;20627;-88
2024/02/26 15:23:21;;;;;;;4.00;2.20;;;;;;;;;;4989242;28;20182;-89
2024/02/26 15:26:26;;;;;;;3.70;2.93;;;;;;;;;;5000816;28;20201;-87
2024/02/26 15:29:30;;;;;;;4.97;3.00;;;;;;;;;;5000365;28;20205;-86
2024/02/26 15:32:35;;;;;;;3.40;2.00;;;;;;;;;;5001309;28;20173;-84
2024/02/26 15:35:44;;;;;;;3.47;1.60;;;;;;;;;;4992247;28;20189;-85
2024/02/26 15:38:49;;;;;;;9.20;1.80;;;;;;;;;;5001571;28;20182;-85
2024/02/26 15:41:54;;;;;;;2.53;1.60;;;;;;;;;;5001046;28;20178;-85
2024/02/26 15:44:58;;;;;;;3.50;2.10;;;;;;;;;;5012333;28;20185;-85
2024/02/26 15:48:02;;;;;;;6.40;2.30;;;;;;;;;;4990391;28;20209;-85
2024/02/26 15:51:06;;;;;;;5.97;2.60;;;;;;;;;;5001184;28;20213;-85
2024/02/26 15:54:10;;;;;;;8.83;3.50;;;;;;;;;;5000695;28;20189;-85
2024/02/26 15:57:17;;;;;;;8.53;2.30;;;;;;;;;;5001023;28;20246;-85
2024/02/26 16:00:21;;;;;;;4.10;2.30;;;;;;;;;;5002982;28;20174;-87
2024/02/26 16:03:25;;;;;;;9.27;3.37;;;;;;;;;;4997750;28;20554;-85
2024/02/26 16:06:35;;;;;;;3.60;2.33;;;;;;;;;;5006280;28;20185;-86
2024/02/26 16:09:40;;;;;;;5.60;3.00;;;;;;;;;;4996303;28;20173;-86
2024/02/26 16:12:49;;;;;;;7.80;5.50;;;;;;;;;;5006922;28;20175;-86
2024/02/26 16:16:02;;;;;;;5.43;3.80;;;;;;;;;;4983492;28;20177;-86
2024/02/26 16:19:12;;;;;;;5.97;4.17;;;;;;;;;;4984622;28;20185;-86
2024/02/26 16:22:17;;;;;;;7.57;4.93;;;;;;;;;;4996147;28;20178;-86
2024/02/26 16:25:21;;;;;;;5.23;3.77;;;;;;;;;;4996137;28;20181;-86
2024/02/26 16:28:26;;;;;;;8.73;3.47;;;;;;;;;;4993899;28;20228;-86
2024/02/26 16:31:30;;;;;;;2.83;1.90;;;;;;;;;;4994283;28;20217;-86
2024/02/26 16:34:34;;;;;;;6.67;1.73;;;;;;;;;;5017347;28;20185;-86
2024/02/26 16:37:39;;;;;;;4.47;2.93;;;;;;;;;;4993279;28;20217;-86
2024/02/26 16:40:43;;;;;;;16.77;5.03;;;;;;;;;;4983877;28;20177;-86
2024/02/26 16:43:47;;;;;;;13.47;4.17;;;;;;;;;;5005770;28;20185;-86
2024/02/26 16:46:51;;;;;;;16.00;5.63;;;;;;;;;;5008563;28;20213;-88
2024/02/26 16:49:56;;;;;;;16.57;4.80;;;;;;;;;;4983131;28;20181;-88
2024/02/26 16:53:00;;;;;;;3.20;2.03;;;;;;;;;;5004645;28;20173;-88
2024/02/26 16:56:09;;;;;;;6.07;2.13;;;;;;;;;;4982379;28;20182;-85
2024/02/26 16:59:14;;;;;;;7.57;2.50;;;;;;;;;;4992776;28;20178;-86
2024/02/26 17:07:01;;;;;;;3.23;1.90;;;;;;;;;;5027252;28;20213;-87
2024/02/26 17:10:06;;;;;;;5.17;1.90;;;;;;;;;;5023156;28;20182;-87
2024/02/26 17:13:12;;;;;;;4.70;2.50;;;;;;;;;;5002862;28;20178;-86
2024/02/26 17:16:16;;;;;;;8.33;2.33;;;;;;;;;;5003453;28;20281;-86
2024/02/26 17:19:21;;;;;;;6.47;2.20;;;;;;;;;;4991214;28;20174;-86
2024/02/26 17:22:25;;;;;;;7.03;2.70;;;;;;;;;;4991994;28;20206;-86
2024/02/26 17:25:30;;;;;;;4.27;2.70;;;;;;;;;;5005847;28;20186;-86
2024/02/26 17:28:42;;;;;;;11.90;6.50;;;;;;;;;;4995478;28;20221;-86
2024/02/26 17:31:46;;;;;;;5.17;2.63;;;;;;;;;;4989455;28;20553;-88
2024/02/26 17:34:51;;;;;;;3.63;2.50;;;;;;;;;;5011298;28;20182;-88
2024/02/26 17:37:56;;;;;;;5.90;4.20;;;;;;;;;;4977355;28;20701;-88
2024/02/26 17:41:01;;;;;;;3.87;2.60;;;;;;;;;;4977582;28;20174;-88
2024/02/26 17:44:05;;;;;;;5.97;3.73;;;;;;;;;;4988567;28;20182;-88
2024/02/26 17:47:09;;;;;;;4.40;2.70;;;;;;;;;;4988626;28;20213;-88
2024/02/26 17:50:13;;;;;;;5.87;3.27;;;;;;;;;;5002251;28;20177;-89
2024/02/26 17:53:17;;;;;;;8.23;2.50;;;;;;;;;;4991533;28;20174;-89
2024/02/26 17:56:22;;;;;;;37.50;22.23;;;;;;;;;;4980849;28;20185;-89
2024/02/26 17:59:29;;;;;;;55.67;26.33;;;;;;;;;;4991493;28;20178;-89
2024/02/26 18:02:33;;;;;;;18.60;8.87;;;;;;;;;;5014856;28;20178;-89
2024/02/26 18:05:38;;;;;;;8.87;5.17;;;;;;;;;;4991090;28;20177;-89
2024/02/26 18:08:42;;;;;;;6.23;4.13;;;;;;;;;;4980142;28;20217;-89
2024/02/26 18:11:47;;;;;;;2.63;1.97;;;;;;;;;;4991173;28;20209;-89
2024/02/26 18:14:51;;;;;;;4.40;2.10;;;;;;;;;;4979640;28;20635;-89
2024/02/26 18:17:55;;;;;;;4.00;2.07;;;;;;;;;;5001916;28;20689;-89
2024/02/26 18:20:59;;;;;;;2.83;1.90;;;;;;;;;;5050815;28;20626;-89
2024/02/26 18:24:04;;;;;;;3.03;2.10;;;;;;;;;;4991024;28;20182;-89
2024/02/26 18:27:08;;;;;;;4.07;2.33;;;;;;;;;;4979853;28;20213;-89